createdAt,value
2023-12-18T00:04:55.419Z,18.63
2023-12-18T00:19:58.058Z,18.60
2023-12-18T00:35:00.618Z,18.63
2023-12-18T00:50:05.411Z,18.69
2023-12-18T01:05:11.069Z,18.71
2023-12-18T01:20:13.785Z,18.73
2023-12-18T01:35:15.496Z,18.74
2023-12-18T01:50:17.583Z,18.72
2023-12-18T02:05:20.161Z,18.74
2023-12-18T02:20:22.975Z,18.77
2023-12-18T02:35:25.555Z,18.79
2023-12-18T02:50:28.103Z,18.81
2023-12-18T03:05:30.765Z,18.82
2023-12-18T03:20:33.461Z,18.83
2023-12-18T03:35:36.833Z,18.86
2023-12-18T03:50:39.373Z,18.87
2023-12-18T04:05:43.033Z,18.87
2023-12-18T04:20:45.580Z,18.88
2023-12-18T04:35:47.279Z,18.87
2023-12-18T04:50:49.804Z,18.85
2023-12-18T05:05:52.391Z,18.84
2023-12-18T05:20:54.937Z,18.84
2023-12-18T05:35:57.531Z,18.85
2023-12-18T05:50:59.274Z,18.83
2023-12-18T06:06:00.942Z,18.83
2023-12-18T06:21:07.688Z,18.82
2023-12-18T06:36:10.387Z,18.79
2023-12-18T06:51:13.118Z,18.79
2023-12-18T07:06:15.834Z,18.79
2023-12-18T07:21:18.827Z,18.75
2023-12-18T07:36:21.556Z,18.70
2023-12-18T07:51:24.393Z,18.65
2023-12-18T08:06:26.964Z,18.63
2023-12-18T08:21:30.029Z,18.58
2023-12-18T08:36:32.609Z,18.57
2023-12-18T08:51:35.463Z,18.61
2023-12-18T09:06:38.833Z,18.62
2023-12-18T09:21:42.152Z,18.60
2023-12-18T09:36:48.502Z,18.98
2023-12-18T09:51:54.300Z,18.84
2023-12-18T10:06:56.801Z,18.81
2023-12-18T10:22:00.213Z,18.81
2023-12-18T10:37:02.629Z,18.80
2023-12-18T10:52:06.680Z,18.82
2023-12-18T11:07:09.957Z,18.83
2023-12-18T11:22:12.904Z,18.85
2023-12-18T11:37:14.685Z,18.87
2023-12-18T11:52:18.330Z,18.88
2023-12-18T12:07:21.066Z,18.88
2023-12-18T12:22:24.212Z,19.10
2023-12-18T12:37:25.974Z,19.36
2023-12-18T12:52:30.969Z,19.41
2023-12-18T13:07:34.337Z,19.31
2023-12-18T13:22:37.913Z,19.29
2023-12-18T13:37:41.940Z,19.26
2023-12-18T13:52:44.300Z,19.42
2023-12-18T14:07:47.155Z,19.59
2023-12-18T14:22:50.481Z,19.67
2023-12-18T14:37:53.014Z,19.86
2023-12-18T14:52:56.703Z,19.85
2023-12-18T15:08:00.067Z,19.70
2023-12-18T15:23:02.675Z,19.64
2023-12-18T15:38:05.525Z,19.60
2023-12-18T15:53:08.317Z,19.56
2023-12-18T16:08:11.075Z,19.53
2023-12-18T16:23:14.515Z,19.69
2023-12-18T16:38:17.809Z,19.64
2023-12-18T16:53:20.672Z,19.61
2023-12-18T17:08:24.623Z,19.58
2023-12-18T17:23:27.655Z,19.56
2023-12-18T17:38:30.873Z,19.56
2023-12-18T17:53:33.383Z,19.54
2023-12-18T18:08:35.200Z,19.53
2023-12-18T18:23:38.888Z,19.50
2023-12-18T18:38:40.648Z,19.49
2023-12-18T18:53:42.603Z,19.46
2023-12-18T19:08:45.180Z,19.45
2023-12-18T19:23:46.844Z,19.44
2023-12-18T19:38:49.140Z,19.42
2023-12-18T19:53:55.670Z,19.41
2023-12-18T20:08:58.350Z,19.41
2023-12-18T20:24:01.275Z,19.37
2023-12-18T20:39:04.178Z,19.35
2023-12-18T20:54:05.891Z,19.33
2023-12-18T21:09:07.952Z,19.30
2023-12-18T21:24:10.592Z,19.26
2023-12-18T21:39:12.310Z,19.21
2023-12-18T21:54:14.316Z,19.18
2023-12-18T22:09:16.846Z,19.13
2023-12-18T22:24:19.637Z,19.08
2023-12-18T22:39:22.277Z,19.02
2023-12-18T22:54:24.923Z,18.95
2023-12-18T23:09:28.856Z,18.88
2023-12-18T23:24:31.500Z,18.79
2023-12-18T23:39:33.248Z,18.70
2023-12-18T23:54:34.959Z,18.63
